createdAt,value
2023-05-01T00:00:33.244Z,61.30
2023-05-01T00:02:04.988Z,61.30
2023-05-01T00:03:37.555Z,61.40
2023-05-01T00:05:09.835Z,61.30
2023-05-01T00:06:41.863Z,61.40
2023-05-01T00:08:13.965Z,61.40
2023-05-01T00:09:45.884Z,61.30
2023-05-01T00:11:18.257Z,61.30
2023-05-01T00:12:51.337Z,61.40
2023-05-01T00:14:23.236Z,61.50
2023-05-01T00:15:55.743Z,61.40
2023-05-01T00:17:28.315Z,61.40
2023-05-01T00:19:00.327Z,61.40
2023-05-01T00:20:32.278Z,61.40
2023-05-01T00:22:03.954Z,61.50
2023-05-01T00:23:36.143Z,61.40
2023-05-01T00:25:08.250Z,61.40
2023-05-01T00:26:39.939Z,61.40
2023-05-01T00:28:11.592Z,61.50
2023-05-01T00:29:43.544Z,61.50
2023-05-01T00:31:15.344Z,61.50
2023-05-01T00:32:47.380Z,61.50
2023-05-01T00:34:19.221Z,61.50
2023-05-01T00:35:52.693Z,61.50
2023-05-01T00:37:24.436Z,61.50
2023-05-01T00:38:56.140Z,61.60
2023-05-01T00:40:27.946Z,61.60
2023-05-01T00:41:59.626Z,61.60
2023-05-01T00:43:31.522Z,61.60
2023-05-01T00:45:04.073Z,61.70
2023-05-01T00:46:35.946Z,61.70
2023-05-01T00:48:09.249Z,61.60
2023-05-01T00:49:43.706Z,61.70
2023-05-01T00:51:15.589Z,61.70
2023-05-01T00:52:47.310Z,61.70
2023-05-01T00:54:19.944Z,61.70
2023-05-01T00:55:51.718Z,61.80
2023-05-01T00:57:23.589Z,61.80
2023-05-01T00:58:56.482Z,61.80
2023-05-01T01:00:29.316Z,61.80
2023-05-01T01:02:01.742Z,61.90
2023-05-01T01:03:33.380Z,61.90
2023-05-01T01:05:05.472Z,61.90
2023-05-01T01:06:50.791Z,61.90
2023-05-01T01:08:54.949Z,61.90
2023-05-01T01:10:33.457Z,61.90
2023-05-01T01:12:29.680Z,61.90
2023-05-01T01:14:13.558Z,61.90
2023-05-01T01:15:56.115Z,61.90
2023-05-01T01:17:31.594Z,61.90
2023-05-01T01:19:32.190Z,62.00
2023-05-01T01:21:16.662Z,62.00
2023-05-01T01:23:01.383Z,62.00
2023-05-01T01:25:11.687Z,62.00
2023-05-01T01:26:58.623Z,62.10
2023-05-01T01:28:42.120Z,62.10
2023-05-01T01:30:35.321Z,62.10
2023-05-01T01:32:27.146Z,62.20
2023-05-01T01:34:35.187Z,62.10
2023-05-01T01:36:11.894Z,62.10
2023-05-01T01:38:06.607Z,62.20
2023-05-01T01:39:49.388Z,62.20
2023-05-01T01:41:27.626Z,62.20
2023-05-01T01:43:10.450Z,62.30
2023-05-01T01:44:52.739Z,62.30
2023-05-01T01:46:26.716Z,62.20
2023-05-01T01:47:59.657Z,62.30
2023-05-01T01:49:34.792Z,62.30
2023-05-01T01:51:13.046Z,62.30
2023-05-01T01:52:49.305Z,62.30
2023-05-01T01:54:27.167Z,62.30
2023-05-01T01:56:03.570Z,62.40
2023-05-01T01:57:39.468Z,62.40
2023-05-01T01:59:11.998Z,62.40
2023-05-01T02:00:45.946Z,62.40
2023-05-01T02:02:20.611Z,62.40
2023-05-01T02:03:53.704Z,62.40
2023-05-01T02:05:26.827Z,62.40
2023-05-01T02:07:01.271Z,62.40
2023-05-01T02:08:35.898Z,62.50
2023-05-01T02:10:13.901Z,62.40
2023-05-01T02:11:48.299Z,62.40
2023-05-01T02:13:20.794Z,62.40
2023-05-01T02:14:53.830Z,62.40
2023-05-01T02:16:27.553Z,62.50
2023-05-01T02:18:02.453Z,62.50
2023-05-01T02:19:35.418Z,62.50
2023-05-01T02:21:07.372Z,62.50
2023-05-01T02:22:42.717Z,62.50
2023-05-01T02:24:15.251Z,62.50
2023-05-01T02:25:49.074Z,62.50
2023-05-01T02:27:23.608Z,62.50
2023-05-01T02:28:55.266Z,62.60
2023-05-01T02:30:27.447Z,62.50
2023-05-01T02:32:00.143Z,62.50
2023-05-01T02:33:31.898Z,62.60
2023-05-01T02:35:03.713Z,62.60
2023-05-01T02:36:35.522Z,62.60
2023-05-01T02:38:07.400Z,62.60
2023-05-01T02:39:40.009Z,62.60
2023-05-01T02:41:15.020Z,62.70
2023-05-01T02:42:49.307Z,62.60
2023-05-01T02:44:24.127Z,62.70
2023-05-01T02:45:58.666Z,62.70
2023-05-01T02:47:34.775Z,62.70
2023-05-01T02:49:07.342Z,62.70
2023-05-01T02:50:40.982Z,62.70
2023-05-01T02:52:13.105Z,62.70
2023-05-01T02:53:46.548Z,62.70
2023-05-01T02:55:25.012Z,62.70
2023-05-01T02:56:59.509Z,62.70
2023-05-01T02:58:34.297Z,62.70
2023-05-01T03:00:09.241Z,62.70
2023-05-01T03:01:40.990Z,62.70
2023-05-01T03:03:12.700Z,62.70
2023-05-01T03:04:44.588Z,62.80
2023-05-01T03:06:16.398Z,62.70
2023-05-01T03:07:48.319Z,62.80
2023-05-01T03:09:21.033Z,62.80
2023-05-01T03:10:52.677Z,62.80
2023-05-01T03:12:24.373Z,62.80
2023-05-01T03:13:56.408Z,62.80
2023-05-01T03:15:28.218Z,62.80
2023-05-01T03:16:59.927Z,62.80
2023-05-01T03:18:31.623Z,62.80
2023-05-01T03:20:06.111Z,62.80
2023-05-01T03:21:38.005Z,62.80
2023-05-01T03:23:09.988Z,62.80
2023-05-01T03:24:42.113Z,62.90
2023-05-01T03:26:13.848Z,62.80
2023-05-01T03:27:45.937Z,62.80
2023-05-01T03:29:17.715Z,62.80
2023-05-01T03:30:52.148Z,62.80
2023-05-01T03:32:23.997Z,62.90
2023-05-01T03:33:57.224Z,62.90
2023-05-01T03:35:29.205Z,62.80
2023-05-01T03:37:01.332Z,62.90
2023-05-01T03:38:33.366Z,62.90
2023-05-01T03:40:14.420Z,62.90
2023-05-01T03:42:21.318Z,62.90
2023-05-01T03:43:54.369Z,62.90
2023-05-01T03:45:37.181Z,62.90
2023-05-01T03:47:10.148Z,62.90
2023-05-01T03:48:45.539Z,62.90
2023-05-01T03:50:17.816Z,62.90
2023-05-01T03:51:51.898Z,62.90
2023-05-01T03:53:23.909Z,63.00
2023-05-01T03:54:55.830Z,63.00
2023-05-01T03:56:38.500Z,63.00
2023-05-01T03:58:11.345Z,63.00
2023-05-01T03:59:43.762Z,63.00
2023-05-01T04:01:16.193Z,63.00
2023-05-01T04:02:49.570Z,63.00
2023-05-01T04:04:26.442Z,63.00
2023-05-01T04:06:01.634Z,63.00
2023-05-01T04:07:33.339Z,63.00
2023-05-01T04:09:05.015Z,63.00
2023-05-01T04:10:36.656Z,63.00
2023-05-01T04:12:09.672Z,63.00
2023-05-01T04:13:41.415Z,63.00
2023-05-01T04:15:14.899Z,63.10
2023-05-01T04:16:47.564Z,63.00
2023-05-01T04:18:19.299Z,63.00
2023-05-01T04:19:51.083Z,63.00
2023-05-01T04:21:22.839Z,63.00
2023-05-01T04:22:57.022Z,63.10
2023-05-01T04:24:29.236Z,63.10
2023-05-01T04:26:00.977Z,63.10
2023-05-01T04:27:32.616Z,63.10
2023-05-01T04:29:04.643Z,63.10
2023-05-01T04:30:36.941Z,63.10
2023-05-01T04:32:08.654Z,63.10
2023-05-01T04:33:40.628Z,63.00
2023-05-01T04:35:12.464Z,63.10
2023-05-01T04:36:47.205Z,63.10
2023-05-01T04:38:19.027Z,63.20
2023-05-01T04:39:51.008Z,63.20
2023-05-01T04:41:24.000Z,63.20
2023-05-01T04:42:56.225Z,63.20
2023-05-01T04:44:28.150Z,63.10
2023-05-01T04:46:00.074Z,63.30
2023-05-01T04:47:31.873Z,63.30
2023-05-01T04:49:03.614Z,63.30
2023-05-01T04:50:35.398Z,63.30
2023-05-01T04:52:07.189Z,63.20
2023-05-01T04:53:53.746Z,63.30
2023-05-01T04:55:30.985Z,63.30
2023-05-01T04:57:16.085Z,63.30
2023-05-01T04:58:47.740Z,63.30
2023-05-01T05:00:23.733Z,63.30
2023-05-01T05:02:00.024Z,63.30
2023-05-01T05:03:32.338Z,63.30
2023-05-01T05:05:04.340Z,63.30
2023-05-01T05:06:36.575Z,63.30
2023-05-01T05:08:10.610Z,63.30
2023-05-01T05:09:50.358Z,63.30
2023-05-01T05:11:22.129Z,63.30
2023-05-01T05:12:53.823Z,63.30
2023-05-01T05:14:25.735Z,63.30
2023-05-01T05:15:57.500Z,63.30
2023-05-01T05:17:31.056Z,63.50
2023-05-01T05:19:03.041Z,63.40
2023-05-01T05:20:39.954Z,63.50
2023-05-01T05:22:12.455Z,63.50
2023-05-01T05:24:04.315Z,63.50
2023-05-01T05:25:36.174Z,63.50
2023-05-01T05:27:08.306Z,63.50
2023-05-01T05:28:40.790Z,63.50
2023-05-01T05:30:13.328Z,63.50
2023-05-01T05:31:45.493Z,63.50
2023-05-01T05:33:17.338Z,63.60
2023-05-01T05:34:49.403Z,63.50
2023-05-01T05:36:21.475Z,63.60
2023-05-01T05:37:54.546Z,63.60
2023-05-01T05:39:26.368Z,63.50
2023-05-01T05:40:59.201Z,63.60
2023-05-01T05:42:31.198Z,63.60
2023-05-01T05:44:08.242Z,63.50
2023-05-01T05:45:40.404Z,63.50
2023-05-01T05:47:12.159Z,63.40
2023-05-01T05:48:43.898Z,63.50
2023-05-01T05:50:15.864Z,63.50
2023-05-01T05:51:49.504Z,63.50
2023-05-01T05:53:22.968Z,63.30
2023-05-01T05:54:56.278Z,63.30
2023-05-01T05:56:27.961Z,63.30
2023-05-01T05:57:59.856Z,63.30
2023-05-01T05:59:31.801Z,63.30
2023-05-01T06:01:03.562Z,63.30
2023-05-01T06:02:35.358Z,63.30
2023-05-01T06:04:07.129Z,63.30
2023-05-01T06:05:43.815Z,63.30
2023-05-01T06:07:15.513Z,63.30
2023-05-01T06:08:47.216Z,63.40
2023-05-01T06:10:19.863Z,63.40
2023-05-01T06:11:51.590Z,63.50
2023-05-01T06:13:23.378Z,63.30
2023-05-01T06:14:55.635Z,63.50
2023-05-01T06:16:27.420Z,63.30
2023-05-01T06:17:59.352Z,63.30
2023-05-01T06:19:31.103Z,63.30
2023-05-01T06:21:10.967Z,63.50
2023-05-01T06:22:42.701Z,63.30
2023-05-01T06:24:25.842Z,63.30
2023-05-01T06:25:58.794Z,63.50
2023-05-01T06:27:30.454Z,63.40
2023-05-01T06:29:02.649Z,63.50
2023-05-01T06:30:34.416Z,63.50
2023-05-01T06:32:06.522Z,63.50
2023-05-01T06:33:38.516Z,63.50
2023-05-01T06:35:21.528Z,63.50
2023-05-01T06:36:53.381Z,63.50
2023-05-01T06:38:27.676Z,63.50
2023-05-01T06:39:59.590Z,63.50
2023-05-01T06:41:32.539Z,63.50
2023-05-01T06:43:04.886Z,63.50
2023-05-01T06:44:36.743Z,63.50
2023-05-01T06:46:08.394Z,63.50
2023-05-01T06:47:40.321Z,63.60
2023-05-01T06:49:13.904Z,63.60
2023-05-01T06:50:45.620Z,63.60
2023-05-01T06:52:17.264Z,63.60
2023-05-01T06:53:48.938Z,63.70
2023-05-01T06:55:22.060Z,63.70
2023-05-01T06:56:54.378Z,63.70
2023-05-01T06:58:26.081Z,63.80
2023-05-01T06:59:58.072Z,63.80
2023-05-01T07:01:30.804Z,63.80
2023-05-01T07:03:04.089Z,63.90
2023-05-01T07:04:35.820Z,63.90
2023-05-01T07:06:07.552Z,63.90
2023-05-01T07:07:44.579Z,63.90
2023-05-01T07:09:22.019Z,63.90
2023-05-01T07:10:54.016Z,63.90
2023-05-01T07:12:25.747Z,63.90
2023-05-01T07:13:57.713Z,63.90
2023-05-01T07:15:29.732Z,63.90
2023-05-01T07:17:02.135Z,63.90
2023-05-01T07:18:34.684Z,64.00
2023-05-01T07:20:07.076Z,64.00
2023-05-01T07:21:38.718Z,64.00
2023-05-01T07:23:10.343Z,64.00
2023-05-01T07:24:42.006Z,64.00
2023-05-01T07:26:13.722Z,64.10
2023-05-01T07:27:45.416Z,64.10
2023-05-01T07:29:17.138Z,64.10
2023-05-01T07:30:48.931Z,64.10
2023-05-01T07:32:20.930Z,64.20
2023-05-01T07:33:54.243Z,64.10
2023-05-01T07:35:26.050Z,64.10
2023-05-01T07:36:57.834Z,64.20
2023-05-01T07:38:29.484Z,64.20
2023-05-01T07:40:01.207Z,64.30
2023-05-01T07:41:32.881Z,64.30
2023-05-01T07:43:05.015Z,64.40
2023-05-01T07:44:36.685Z,64.40
2023-05-01T07:46:08.437Z,64.50
2023-05-01T07:47:40.197Z,64.50
2023-05-01T07:49:11.810Z,64.50
2023-05-01T07:50:43.598Z,64.50
2023-05-01T07:52:15.434Z,64.60
2023-05-01T07:53:48.553Z,64.60
2023-05-01T07:55:22.643Z,64.70
2023-05-01T07:56:54.584Z,64.70
2023-05-01T07:58:26.194Z,64.70
2023-05-01T07:59:58.104Z,64.70
2023-05-01T08:01:30.009Z,64.80
2023-05-01T08:03:02.047Z,64.70
2023-05-01T08:04:33.799Z,64.80
2023-05-01T08:06:06.363Z,64.80
2023-05-01T08:07:38.093Z,64.80
2023-05-01T08:09:09.775Z,64.90
2023-05-01T08:10:41.458Z,64.80
2023-05-01T08:12:13.734Z,64.90
2023-05-01T08:13:45.389Z,64.90
2023-05-01T08:15:17.099Z,64.90
2023-05-01T08:16:54.195Z,64.90
2023-05-01T08:18:25.907Z,64.90
2023-05-01T08:19:57.859Z,65.00
2023-05-01T08:21:29.749Z,65.00
2023-05-01T08:23:01.662Z,65.10
2023-05-01T08:24:33.322Z,65.10
2023-05-01T08:26:04.998Z,65.10
2023-05-01T08:27:36.711Z,65.10
2023-05-01T08:29:11.328Z,65.10
2023-05-01T08:30:44.320Z,65.20
2023-05-01T08:32:19.197Z,65.20
2023-05-01T08:33:50.973Z,65.20
2023-05-01T08:35:22.628Z,65.20
2023-05-01T08:36:54.419Z,65.30
2023-05-01T08:38:26.363Z,65.20
2023-05-01T08:39:58.187Z,65.20
2023-05-01T08:41:32.407Z,65.30
2023-05-01T08:43:04.597Z,65.20
2023-05-01T08:44:39.650Z,65.10
2023-05-01T08:46:15.647Z,65.20
2023-05-01T08:47:48.025Z,65.20
2023-05-01T08:49:22.586Z,65.20
2023-05-01T08:50:59.428Z,65.20
2023-05-01T08:52:33.303Z,65.30
2023-05-01T08:54:08.184Z,65.20
2023-05-01T08:55:43.758Z,65.30
2023-05-01T08:57:16.953Z,65.20
2023-05-01T08:58:49.883Z,65.30
2023-05-01T09:00:21.799Z,65.40
2023-05-01T09:01:53.521Z,65.40
2023-05-01T09:03:27.273Z,65.40
2023-05-01T09:05:01.746Z,65.40
2023-05-01T09:06:33.692Z,65.40
2023-05-01T09:08:05.400Z,65.50
2023-05-01T09:09:37.164Z,65.50
2023-05-01T09:11:09.604Z,65.40
2023-05-01T09:12:44.882Z,65.40
2023-05-01T09:14:19.866Z,65.50
2023-05-01T09:15:51.550Z,65.40
2023-05-01T09:17:24.246Z,65.50
2023-05-01T09:18:56.942Z,65.50
2023-05-01T09:20:29.040Z,65.60
2023-05-01T09:22:00.755Z,65.50
2023-05-01T09:23:32.940Z,65.60
2023-05-01T09:25:09.286Z,65.60
2023-05-01T09:26:41.892Z,65.60
2023-05-01T09:28:22.613Z,65.60
2023-05-01T09:29:54.466Z,65.60
2023-05-01T09:31:30.342Z,65.70
2023-05-01T09:33:12.803Z,65.70
2023-05-01T09:34:44.841Z,65.70
2023-05-01T09:36:18.250Z,65.70
2023-05-01T09:37:50.222Z,65.70
2023-05-01T09:39:24.952Z,65.80
2023-05-01T09:41:04.466Z,65.70
2023-05-01T09:42:41.621Z,65.80
2023-05-01T09:44:19.339Z,65.90
2023-05-01T09:46:12.975Z,65.90
2023-05-01T09:47:46.163Z,66.00
2023-05-01T09:49:17.839Z,65.90
2023-05-01T09:50:49.528Z,66.00
2023-05-01T09:52:21.218Z,66.10
2023-05-01T09:53:54.490Z,66.10
2023-05-01T09:55:26.233Z,66.10
2023-05-01T09:56:58.399Z,66.20
2023-05-01T09:58:30.264Z,66.20
2023-05-01T10:00:08.063Z,66.30
2023-05-01T10:01:45.295Z,66.30
2023-05-01T10:03:20.074Z,66.40
2023-05-01T10:04:59.182Z,66.40
2023-05-01T10:06:31.861Z,66.40
2023-05-01T10:08:05.725Z,66.40
2023-05-01T10:09:37.430Z,66.50
2023-05-01T10:11:09.085Z,66.50
2023-05-01T10:12:40.707Z,66.50
2023-05-01T10:14:12.579Z,66.50
2023-05-01T10:15:46.670Z,66.60
2023-05-01T10:17:21.604Z,66.60
2023-05-01T10:18:57.116Z,66.60
2023-05-01T10:20:29.219Z,66.60
2023-05-01T10:22:01.470Z,66.60
2023-05-01T10:23:33.240Z,66.60
2023-05-01T10:25:08.492Z,66.60
2023-05-01T10:26:41.894Z,66.60
2023-05-01T10:28:13.919Z,66.60
2023-05-01T10:29:48.916Z,66.70
2023-05-01T10:31:20.697Z,66.70
2023-05-01T10:32:52.931Z,66.70
2023-05-01T10:34:27.057Z,66.80
2023-05-01T10:36:01.604Z,66.80
2023-05-01T10:37:49.530Z,66.80
2023-05-01T10:39:35.656Z,66.80
2023-05-01T10:41:09.060Z,66.90
2023-05-01T10:43:31.968Z,66.80
2023-05-01T10:45:29.068Z,66.90
2023-05-01T10:47:20.755Z,66.90
2023-05-01T10:48:56.458Z,66.80
2023-05-01T10:50:28.759Z,66.90
2023-05-01T10:52:03.678Z,66.80
2023-05-01T10:53:35.333Z,66.90
2023-05-01T10:55:36.086Z,66.90
2023-05-01T10:57:07.834Z,67.00
2023-05-01T10:58:39.454Z,67.00
2023-05-01T11:00:11.720Z,66.90
2023-05-01T11:01:52.090Z,66.90
2023-05-01T11:03:24.363Z,67.00
2023-05-01T11:04:56.871Z,66.90
2023-05-01T11:06:29.224Z,67.00
2023-05-01T11:08:40.361Z,67.00
2023-05-01T11:10:27.512Z,67.00
2023-05-01T11:11:59.222Z,66.90
2023-05-01T11:14:02.744Z,66.90
2023-05-01T11:15:34.658Z,66.90
2023-05-01T11:17:06.369Z,66.90
2023-05-01T11:18:47.020Z,67.00
2023-05-01T11:20:25.059Z,67.00
2023-05-01T11:21:57.207Z,66.90
2023-05-01T11:23:28.926Z,66.90
2023-05-01T11:25:04.860Z,66.80
2023-05-01T11:26:42.170Z,67.00
2023-05-01T11:28:19.358Z,67.00
2023-05-01T11:29:51.285Z,67.10
2023-05-01T11:31:23.164Z,67.10
2023-05-01T11:32:54.954Z,67.00
2023-05-01T11:34:27.113Z,67.10
2023-05-01T11:36:00.263Z,67.00
2023-05-01T11:37:44.734Z,67.10
2023-05-01T11:39:17.456Z,67.10
2023-05-01T11:40:55.756Z,66.90
2023-05-01T11:42:27.511Z,66.90
2023-05-01T11:43:59.388Z,66.80
2023-05-01T11:45:32.056Z,66.90
2023-05-01T11:47:03.905Z,66.80
2023-05-01T11:48:35.863Z,66.80
2023-05-01T11:50:09.108Z,66.80
2023-05-01T11:51:40.964Z,66.80
2023-05-01T11:53:17.306Z,66.80
2023-05-01T11:54:49.012Z,66.70
2023-05-01T11:56:26.443Z,66.70
2023-05-01T11:58:00.272Z,66.70
2023-05-01T11:59:31.942Z,66.60
2023-05-01T12:01:04.057Z,66.70
2023-05-01T12:02:36.243Z,66.60
2023-05-01T12:04:08.696Z,66.60
2023-05-01T12:05:42.798Z,66.60
2023-05-01T12:07:22.156Z,66.60
2023-05-01T12:08:54.037Z,66.50
2023-05-01T12:10:25.804Z,66.50
2023-05-01T12:11:59.600Z,66.50
2023-05-01T12:13:31.405Z,66.50
2023-05-01T12:15:04.202Z,66.40
2023-05-01T12:16:37.697Z,66.40
2023-05-01T12:18:09.890Z,66.30
2023-05-01T12:19:48.782Z,66.20
2023-05-01T12:21:20.798Z,66.10
2023-05-01T12:22:52.473Z,66.10
2023-05-01T12:24:24.164Z,66.10
2023-05-01T12:25:56.048Z,65.90
2023-05-01T12:27:27.936Z,66.00
2023-05-01T12:29:02.033Z,66.00
2023-05-01T12:30:34.518Z,65.90
2023-05-01T12:32:08.098Z,65.90
2023-05-01T12:33:39.873Z,65.90
2023-05-01T12:35:15.960Z,65.80
2023-05-01T12:36:54.862Z,65.70
2023-05-01T12:38:26.741Z,65.70
2023-05-01T12:39:58.772Z,65.70
2023-05-01T12:41:43.285Z,65.60
2023-05-01T12:43:15.146Z,65.70
2023-05-01T12:44:46.980Z,65.70
2023-05-01T12:46:18.712Z,65.70
2023-05-01T12:47:50.635Z,65.70
2023-05-01T12:49:23.655Z,65.70
2023-05-01T12:50:55.813Z,65.70
2023-05-01T12:52:28.058Z,65.70
2023-05-01T12:53:59.776Z,65.70
2023-05-01T12:55:34.084Z,65.60
2023-05-01T12:57:14.535Z,65.70
2023-05-01T12:58:46.312Z,65.70
2023-05-01T13:00:18.916Z,65.70
2023-05-01T13:01:59.060Z,65.70
2023-05-01T13:03:31.354Z,65.60
2023-05-01T13:05:07.872Z,65.70
2023-05-01T13:06:39.791Z,65.60
2023-05-01T13:08:11.486Z,65.60
2023-05-01T13:09:58.516Z,65.60
2023-05-01T13:11:30.475Z,65.50
2023-05-01T13:13:02.261Z,65.60
2023-05-01T13:14:39.414Z,65.60
2023-05-01T13:16:16.039Z,65.50
2023-05-01T13:17:48.097Z,65.40
2023-05-01T13:19:30.078Z,65.30
2023-05-01T13:21:09.652Z,65.30
2023-05-01T13:22:41.600Z,65.10
2023-05-01T13:24:15.175Z,65.10
2023-05-01T13:25:47.804Z,65.00
2023-05-01T13:27:21.626Z,65.00
2023-05-01T13:28:53.612Z,64.90
2023-05-01T13:30:32.663Z,64.80
2023-05-01T13:32:08.470Z,64.60
2023-05-01T13:33:42.260Z,64.60
2023-05-01T13:35:25.355Z,64.50
2023-05-01T13:36:58.202Z,64.50
2023-05-01T13:38:34.228Z,64.40
2023-05-01T13:40:06.618Z,64.20
2023-05-01T13:41:42.408Z,63.70
2023-05-01T13:43:16.170Z,63.70
2023-05-01T13:44:52.095Z,63.30
2023-05-01T13:46:26.860Z,63.40
2023-05-01T13:47:58.806Z,63.50
2023-05-01T13:49:31.080Z,63.20
2023-05-01T13:51:02.996Z,63.20
2023-05-01T13:52:43.323Z,63.40
2023-05-01T13:54:16.617Z,63.30
2023-05-01T13:55:48.360Z,63.30
2023-05-01T13:57:19.980Z,63.10
2023-05-01T13:58:51.760Z,63.20
2023-05-01T14:00:23.501Z,63.20
2023-05-01T14:01:55.269Z,63.20
2023-05-01T14:03:27.293Z,63.30
2023-05-01T14:05:00.923Z,63.30
2023-05-01T14:06:36.473Z,63.40
2023-05-01T14:08:08.855Z,63.40
2023-05-01T14:09:43.890Z,63.40
2023-05-01T14:11:16.101Z,63.70
2023-05-01T14:12:47.932Z,63.70
2023-05-01T14:14:19.938Z,63.90
2023-05-01T14:15:51.698Z,64.10
2023-05-01T14:17:31.344Z,64.20
2023-05-01T14:19:03.157Z,64.20
2023-05-01T14:20:34.789Z,64.30
2023-05-01T14:22:09.600Z,64.40
2023-05-01T14:23:45.094Z,64.50
2023-05-01T14:25:25.125Z,64.50
2023-05-01T14:26:57.696Z,64.70
2023-05-01T14:28:30.311Z,64.70
2023-05-01T14:30:08.443Z,64.90
2023-05-01T14:31:40.938Z,65.00
2023-05-01T14:33:13.869Z,65.10
2023-05-01T14:34:45.995Z,65.10
2023-05-01T14:36:18.709Z,65.20
2023-05-01T14:37:50.719Z,65.30
2023-05-01T14:39:22.746Z,65.50
2023-05-01T14:41:13.024Z,65.50
2023-05-01T14:42:45.737Z,65.70
2023-05-01T14:44:20.386Z,65.80
2023-05-01T14:45:52.537Z,65.80
2023-05-01T14:47:24.253Z,65.80
2023-05-01T14:48:56.672Z,65.90
2023-05-01T14:50:28.557Z,66.00
2023-05-01T14:52:00.251Z,66.10
2023-05-01T14:53:32.771Z,66.10
2023-05-01T14:55:04.890Z,66.30
2023-05-01T14:56:36.702Z,66.20
2023-05-01T14:58:08.495Z,66.20
2023-05-01T14:59:40.860Z,66.40
2023-05-01T15:01:13.953Z,66.30
2023-05-01T15:02:46.016Z,66.30
2023-05-01T15:04:18.410Z,66.30
2023-05-01T15:05:50.343Z,66.30
2023-05-01T15:07:22.625Z,66.30
2023-05-01T15:08:54.369Z,66.30
2023-05-01T15:10:26.501Z,66.30
2023-05-01T15:11:58.353Z,66.30
2023-05-01T15:13:31.665Z,66.40
2023-05-01T15:15:03.718Z,66.50
2023-05-01T15:16:35.537Z,66.50
2023-05-01T15:18:07.311Z,66.60
2023-05-01T15:19:39.075Z,66.60
2023-05-01T15:21:10.819Z,66.70
2023-05-01T15:22:42.486Z,66.80
2023-05-01T15:24:14.209Z,66.80
2023-05-01T15:25:47.548Z,66.80
2023-05-01T15:27:19.285Z,66.90
2023-05-01T15:28:51.188Z,67.00
2023-05-01T15:30:22.967Z,67.10
2023-05-01T15:32:08.133Z,67.20
2023-05-01T15:33:43.067Z,67.20
2023-05-01T15:35:14.982Z,67.20
2023-05-01T15:36:46.795Z,67.30
2023-05-01T15:38:20.750Z,67.30
2023-05-01T15:39:52.897Z,67.30
2023-05-01T15:41:25.486Z,67.30
2023-05-01T15:42:57.665Z,67.30
2023-05-01T15:44:29.322Z,67.30
2023-05-01T15:46:01.181Z,67.40
2023-05-01T15:47:33.044Z,67.40
2023-05-01T15:49:09.669Z,67.50
2023-05-01T15:50:41.367Z,67.50
2023-05-01T15:52:13.393Z,67.70
2023-05-01T15:53:45.285Z,67.60
2023-05-01T15:55:20.312Z,67.60
2023-05-01T15:56:52.506Z,67.60
2023-05-01T15:58:24.748Z,67.70
2023-05-01T15:59:56.607Z,67.70
2023-05-01T16:01:28.462Z,67.70
2023-05-01T16:03:02.813Z,67.70
2023-05-01T16:04:34.801Z,67.70
2023-05-01T16:06:06.601Z,67.70
2023-05-01T16:07:39.804Z,67.70
2023-05-01T16:09:12.748Z,67.70
2023-05-01T16:10:44.943Z,67.60
2023-05-01T16:12:16.696Z,67.60
2023-05-01T16:13:48.450Z,67.60
2023-05-01T16:15:20.297Z,67.50
2023-05-01T16:16:52.308Z,67.60
2023-05-01T16:18:24.886Z,67.50
2023-05-01T16:19:56.964Z,67.50
2023-05-01T16:21:29.040Z,67.50
2023-05-01T16:23:00.745Z,67.60
2023-05-01T16:24:33.597Z,67.60
2023-05-01T16:26:06.058Z,67.50
2023-05-01T16:27:43.964Z,67.50
2023-05-01T16:29:16.178Z,67.50
2023-05-01T16:30:48.012Z,67.50
2023-05-01T16:32:20.686Z,67.50
2023-05-01T16:33:53.739Z,67.40
2023-05-01T16:35:27.583Z,67.50
2023-05-01T16:36:59.255Z,67.40
2023-05-01T16:38:31.407Z,67.40
2023-05-01T16:40:04.401Z,67.40
2023-05-01T16:41:45.983Z,67.40
2023-05-01T16:43:17.743Z,67.50
2023-05-01T16:44:49.386Z,67.50
2023-05-01T16:46:21.196Z,67.50
2023-05-01T16:47:52.886Z,67.50
2023-05-01T16:49:27.405Z,67.50
2023-05-01T16:50:59.135Z,67.60
2023-05-01T16:52:30.834Z,67.60
2023-05-01T16:54:02.478Z,67.60
2023-05-01T16:55:34.178Z,67.70
2023-05-01T16:57:05.932Z,67.70
2023-05-01T16:58:37.629Z,67.70
2023-05-01T17:00:10.185Z,67.70
2023-05-01T17:01:42.043Z,67.70
2023-05-01T17:03:14.796Z,67.80
2023-05-01T17:04:46.670Z,67.80
2023-05-01T17:06:18.478Z,67.80
2023-05-01T17:07:50.344Z,67.80
2023-05-01T17:09:22.019Z,67.90
2023-05-01T17:11:00.765Z,67.90
2023-05-01T17:12:32.642Z,68.00
2023-05-01T17:14:04.293Z,68.00
2023-05-01T17:15:36.000Z,68.00
2023-05-01T17:17:09.580Z,68.00
2023-05-01T17:18:41.433Z,68.10
2023-05-01T17:20:13.880Z,68.10
2023-05-01T17:21:45.847Z,68.10
2023-05-01T17:23:17.563Z,68.10
2023-05-01T17:24:50.504Z,68.00
2023-05-01T17:26:22.736Z,68.10
2023-05-01T17:27:54.975Z,68.20
2023-05-01T17:29:27.425Z,68.10
2023-05-01T17:30:59.125Z,68.10
2023-05-01T17:32:37.123Z,68.10
2023-05-01T17:34:09.452Z,68.20
2023-05-01T17:35:41.326Z,68.20
2023-05-01T17:37:13.113Z,68.20
2023-05-01T17:38:44.806Z,68.20
2023-05-01T17:40:16.507Z,68.20
2023-05-01T17:41:51.057Z,68.30
2023-05-01T17:43:22.753Z,68.20
2023-05-01T17:44:54.425Z,68.30
2023-05-01T17:46:26.635Z,68.20
2023-05-01T17:47:58.459Z,68.20
2023-05-01T17:49:30.135Z,68.30
2023-05-01T17:51:01.876Z,68.20
2023-05-01T17:52:33.612Z,68.20
2023-05-01T17:54:05.836Z,68.30
2023-05-01T17:55:38.917Z,68.20
2023-05-01T17:57:10.789Z,68.20
2023-05-01T17:58:42.507Z,68.30
2023-05-01T18:00:14.553Z,68.20
2023-05-01T18:01:46.224Z,68.30
2023-05-01T18:03:18.086Z,68.30
2023-05-01T18:04:50.943Z,68.30
2023-05-01T18:06:22.739Z,68.30
2023-05-01T18:07:54.503Z,68.30
2023-05-01T18:09:26.143Z,68.30
2023-05-01T18:10:57.830Z,68.20
2023-05-01T18:12:29.979Z,68.20
2023-05-01T18:14:02.814Z,68.20
2023-05-01T18:15:37.056Z,68.10
2023-05-01T18:17:09.913Z,68.10
2023-05-01T18:18:43.388Z,68.10
2023-05-01T18:20:15.634Z,68.00
2023-05-01T18:21:47.333Z,68.00
2023-05-01T18:23:19.891Z,67.90
2023-05-01T18:24:52.610Z,67.90
2023-05-01T18:26:26.943Z,67.90
2023-05-01T18:27:59.472Z,67.90
2023-05-01T18:29:31.356Z,67.60
2023-05-01T18:31:04.145Z,67.70
2023-05-01T18:32:47.425Z,67.70
2023-05-01T18:34:20.621Z,67.70
2023-05-01T18:35:52.716Z,67.60
2023-05-01T18:37:25.788Z,67.70
2023-05-01T18:38:57.512Z,67.60
2023-05-01T18:40:29.948Z,67.60
2023-05-01T18:42:03.445Z,67.60
2023-05-01T18:43:35.384Z,67.60
2023-05-01T18:45:07.914Z,67.60
2023-05-01T18:46:39.662Z,67.60
2023-05-01T18:48:11.334Z,67.60
2023-05-01T18:49:43.039Z,67.60
2023-05-01T18:51:14.822Z,67.60
2023-05-01T18:52:46.485Z,67.60
2023-05-01T18:54:18.207Z,67.60
2023-05-01T18:55:50.530Z,67.60
2023-05-01T18:57:22.850Z,67.60
2023-05-01T18:58:54.806Z,67.70
2023-05-01T19:00:27.926Z,67.70
2023-05-01T19:01:59.976Z,67.70
2023-05-01T19:03:32.847Z,67.60
2023-05-01T19:05:06.188Z,67.70
2023-05-01T19:06:40.853Z,67.70
2023-05-01T19:08:13.752Z,67.70
2023-05-01T19:09:45.899Z,67.70
2023-05-01T19:11:17.536Z,67.70
2023-05-01T19:12:49.438Z,67.70
2023-05-01T19:14:21.557Z,67.70
2023-05-01T19:15:53.490Z,67.70
2023-05-01T19:17:25.859Z,67.70
2023-05-01T19:18:57.567Z,67.80
2023-05-01T19:20:29.285Z,67.70
2023-05-01T19:22:00.948Z,67.80
2023-05-01T19:23:35.294Z,67.80
2023-05-01T19:25:08.086Z,67.80
2023-05-01T19:26:39.709Z,67.80
2023-05-01T19:28:11.424Z,67.80
2023-05-01T19:29:43.118Z,67.90
2023-05-01T19:31:16.167Z,67.80
2023-05-01T19:32:47.984Z,67.80
2023-05-01T19:34:20.667Z,67.80
2023-05-01T19:35:52.436Z,67.80
2023-05-01T19:37:26.597Z,67.80
2023-05-01T19:38:58.289Z,67.90
2023-05-01T19:40:29.993Z,67.90
2023-05-01T19:42:02.269Z,67.90
2023-05-01T19:43:36.517Z,67.90
2023-05-01T19:45:08.752Z,67.90
2023-05-01T19:46:40.579Z,67.90
2023-05-01T19:48:12.342Z,67.90
2023-05-01T19:49:44.979Z,67.90
2023-05-01T19:51:16.649Z,67.80
2023-05-01T19:52:48.318Z,67.90
2023-05-01T19:54:22.158Z,67.90
2023-05-01T19:55:56.129Z,67.90
2023-05-01T19:57:28.434Z,68.00
2023-05-01T19:59:00.431Z,68.00
2023-05-01T20:00:32.160Z,67.90
2023-05-01T20:02:04.385Z,68.00
2023-05-01T20:03:36.229Z,67.90
2023-05-01T20:05:08.329Z,67.90
2023-05-01T20:06:40.122Z,68.00
2023-05-01T20:08:12.726Z,68.00
2023-05-01T20:09:44.627Z,68.00